Avon, Minnesota
Current Conditions -  °F | °C
As of 8:53 PM on Saturday 22 Nov 2014 (Local Time) from KSTC Reporting Station
Moderate Fog Moderate Fog  
Wind Chill: 28°   Ceiling: 200
Heat Index: 35°   Visibility: 0.5mi
Dew Point: 33°   Wind: 9mph
Humidity: 92%   Direction: 130°SE
Pressure: 29.52"   Gusts: NA
Location:  45.61°N, 94.45°W
Report Text: KSTC 230253Z 13008KT 1/2SM FG VV002 02/01 A2952 RMK AO2 SLP017 T00170006 58012
Loading
Personal Weather Stations






























Interactive Weather Map New forecast layout! Learn more

10-Day Weather Forecast

Advertisements
Track Severe Weather on mobile